Time;durP1;ratioP1;P1;durP2;ratioP2;P2;SDS_P1;SDS_P2;PMS_P1;PMS_P2;Temp;Humidity;BMP_temperature;BMP_pressure;BME280_temperature;BME280_humidity;BME280_pressure;Samples;Min_cycle;Max_cycle;Signal;HPM_P1;HPM_P2
2023/05/27 00:01:52;;;;;;;10.55;4.28;;;;;;;;;;5034643;28;20060;-76
2023/05/27 00:04:18;;;;;;;8.55;3.70;;;;;;;;;;5036039;28;20053;-76
2023/05/27 00:06:44;;;;;;;9.85;4.38;;;;;;;;;;5034906;28;20615;-76
2023/05/27 00:09:11;;;;;;;9.75;3.70;;;;;;;;;;5023353;28;20045;-76
2023/05/27 00:11:37;;;;;;;10.15;4.13;;;;;;;;;;5002592;28;20041;-76
2023/05/27 00:14:03;;;;;;;10.05;3.90;;;;;;;;;;5035236;28;20049;-76
2023/05/27 00:16:29;;;;;;;10.13;3.92;;;;;;;;;;5018020;28;20052;-76
2023/05/27 00:18:55;;;;;;;12.82;4.35;;;;;;;;;;5033133;28;20045;-76
2023/05/27 00:21:21;;;;;;;9.57;4.03;;;;;;;;;;5036682;28;20051;-76
2023/05/27 00:23:47;;;;;;;11.95;3.85;;;;;;;;;;5052488;28;20187;-76
2023/05/27 00:26:13;;;;;;;12.48;4.15;;;;;;;;;;5054820;28;20048;-76
2023/05/27 00:28:40;;;;;;;8.05;3.33;;;;;;;;;;5054575;28;20051;-76
2023/05/27 00:31:06;;;;;;;11.60;3.92;;;;;;;;;;5020742;28;20407;-76
2023/05/27 00:33:32;;;;;;;8.60;3.90;;;;;;;;;;5037851;28;20127;-76
2023/05/27 00:35:58;;;;;;;8.20;3.30;;;;;;;;;;5037464;28;20048;-76
2023/05/27 00:38:24;;;;;;;10.82;3.70;;;;;;;;;;5017383;28;20087;-77
2023/05/27 00:40:50;;;;;;;9.98;3.50;;;;;;;;;;5018011;28;20383;-76
2023/05/27 00:43:16;;;;;;;9.20;3.78;;;;;;;;;;5023943;28;20052;-76
2023/05/27 00:45:42;;;;;;;9.15;3.75;;;;;;;;;;5037521;28;20045;-76
2023/05/27 00:48:08;;;;;;;9.38;3.75;;;;;;;;;;5036832;28;20045;-76
2023/05/27 00:50:35;;;;;;;11.82;4.47;;;;;;;;;;5037050;28;20040;-76
2023/05/27 00:53:01;;;;;;;9.77;3.58;;;;;;;;;;5049831;28;20037;-76
2023/05/27 00:55:27;;;;;;;13.05;4.13;;;;;;;;;;5016129;28;20045;-76
2023/05/27 00:57:54;;;;;;;9.93;3.90;;;;;;;;;;5016467;28;20410;-77
2023/05/27 01:00:20;;;;;;;12.00;4.07;;;;;;;;;;5033702;28;20156;-76
2023/05/27 01:02:46;;;;;;;10.45;3.65;;;;;;;;;;5054798;28;20068;-76
2023/05/27 01:05:14;;;;;;;11.35;4.07;;;;;;;;;;5054558;28;20467;-76
2023/05/27 01:07:43;;;;;;;11.98;3.90;;;;;;;;;;5031061;28;21023;-76
2023/05/27 01:10:16;;;;;;;10.80;4.10;;;;;;;;;;5023597;28;20124;-76
2023/05/27 01:13:01;;;;;;;12.18;4.03;;;;;;;;;;5034856;28;20056;-76
2023/05/27 01:15:28;;;;;;;12.23;4.50;;;;;;;;;;5054190;28;20472;-76
2023/05/27 01:17:56;;;;;;;12.27;4.60;;;;;;;;;;5057956;28;20072;-77
2023/05/27 01:20:22;;;;;;;13.02;4.22;;;;;;;;;;5073991;28;20052;-76
2023/05/27 01:22:52;;;;;;;10.95;4.45;;;;;;;;;;5058708;28;20120;-76
2023/05/27 01:25:21;;;;;;;11.82;4.25;;;;;;;;;;5033835;28;20124;-76
2023/05/27 01:27:47;;;;;;;10.02;4.75;;;;;;;;;;5050035;28;20041;-76
2023/05/27 01:30:13;;;;;;;9.05;4.22;;;;;;;;;;5053932;28;20406;-76
2023/05/27 01:32:45;;;;;;;9.93;3.90;;;;;;;;;;5052432;28;20040;-76
2023/05/27 01:35:11;;;;;;;10.02;4.15;;;;;;;;;;5016169;28;20115;-76
2023/05/27 01:37:38;;;;;;;11.40;3.83;;;;;;;;;;5039010;28;20391;-76
2023/05/27 01:40:05;;;;;;;15.18;4.70;;;;;;;;;;5053641;28;20124;-76
2023/05/27 01:42:33;;;;;;;7.03;3.63;;;;;;;;;;5053876;28;20372;-76
2023/05/27 01:45:00;;;;;;;16.52;5.03;;;;;;;;;;5053777;28;20482;-76
2023/05/27 01:47:27;;;;;;;12.85;3.90;;;;;;;;;;5052681;28;20442;-76
2023/05/27 01:49:53;;;;;;;13.05;4.05;;;;;;;;;;5045819;28;20056;-77
2023/05/27 01:52:19;;;;;;;10.18;3.83;;;;;;;;;;5040673;28;20191;-76
2023/05/27 01:54:45;;;;;;;12.18;4.05;;;;;;;;;;5032194;28;20498;-76
2023/05/27 01:57:11;;;;;;;11.55;4.45;;;;;;;;;;5039869;28;20119;-77
2023/05/27 01:59:37;;;;;;;16.70;4.45;;;;;;;;;;5027337;28;20052;-76
2023/05/27 02:02:03;;;;;;;9.30;4.72;;;;;;;;;;5035696;28;20163;-76
2023/05/27 02:04:29;;;;;;;13.68;5.18;;;;;;;;;;5035349;28;20044;-76
2023/05/27 02:06:55;;;;;;;12.27;4.32;;;;;;;;;;5049554;28;20393;-76
2023/05/27 02:09:21;;;;;;;10.68;4.50;;;;;;;;;;5022006;28;20037;-76
2023/05/27 02:11:47;;;;;;;10.15;4.05;;;;;;;;;;5053412;28;20037;-76
2023/05/27 02:14:13;;;;;;;10.65;4.35;;;;;;;;;;5052676;28;20047;-77
2023/05/27 02:16:39;;;;;;;13.45;4.30;;;;;;;;;;5053296;28;20128;-77
2023/05/27 02:19:05;;;;;;;11.13;4.28;;;;;;;;;;5052602;28;20044;-76
2023/05/27 02:21:32;;;;;;;9.10;4.18;;;;;;;;;;5052773;28;20040;-76
2023/05/27 02:23:58;;;;;;;8.85;3.67;;;;;;;;;;5037055;28;20091;-76
2023/05/27 02:26:25;;;;;;;11.05;4.20;;;;;;;;;;5015479;28;20088;-76
2023/05/27 02:28:51;;;;;;;9.23;4.55;;;;;;;;;;5032814;28;20128;-76
2023/05/27 02:31:17;;;;;;;10.77;4.47;;;;;;;;;;5042295;28;20384;-76
2023/05/27 02:33:43;;;;;;;9.50;4.10;;;;;;;;;;5052155;28;20487;-76
2023/05/27 02:36:10;;;;;;;10.68;4.63;;;;;;;;;;5053293;28;20079;-77
2023/05/27 02:38:36;;;;;;;9.80;4.50;;;;;;;;;;5034774;28;20046;-76
2023/05/27 02:41:02;;;;;;;13.45;4.50;;;;;;;;;;5033322;28;20439;-76
2023/05/27 02:43:29;;;;;;;12.07;4.20;;;;;;;;;;5033067;28;20388;-76
2023/05/27 02:45:55;;;;;;;13.43;4.35;;;;;;;;;;5032978;28;20058;-76
2023/05/27 02:48:21;;;;;;;12.82;4.88;;;;;;;;;;5033256;28;20080;-77
2023/05/27 02:50:47;;;;;;;14.60;5.18;;;;;;;;;;5048575;28;20073;-76
2023/05/27 02:53:13;;;;;;;17.27;4.90;;;;;;;;;;5051316;28;20080;-76
2023/05/27 02:55:39;;;;;;;12.13;4.35;;;;;;;;;;5016058;28;20045;-77
2023/05/27 02:58:05;;;;;;;9.48;4.15;;;;;;;;;;5017262;28;20057;-76
2023/05/27 03:00:32;;;;;;;9.82;4.65;;;;;;;;;;5036931;28;20446;-76
2023/05/27 03:02:58;;;;;;;14.68;4.60;;;;;;;;;;5055744;28;20075;-76
2023/05/27 03:05:24;;;;;;;12.77;5.57;;;;;;;;;;5052645;28;20129;-76
2023/05/27 03:07:50;;;;;;;10.45;4.95;;;;;;;;;;5034845;28;20048;-76
2023/05/27 03:10:16;;;;;;;10.60;4.35;;;;;;;;;;5051768;28;20041;-76
2023/05/27 03:12:42;;;;;;;11.25;4.65;;;;;;;;;;5034969;28;20514;-76
2023/05/27 03:15:08;;;;;;;10.57;4.72;;;;;;;;;;5051904;28;20083;-76
2023/05/27 03:17:37;;;;;;;12.52;4.90;;;;;;;;;;5034655;28;20053;-76
2023/05/27 03:20:03;;;;;;;11.25;4.43;;;;;;;;;;5037912;28;20124;-76
2023/05/27 03:22:30;;;;;;;10.38;4.82;;;;;;;;;;5041414;28;20042;-77
2023/05/27 03:24:57;;;;;;;14.45;4.85;;;;;;;;;;5036627;28;20081;-76
2023/05/27 03:27:23;;;;;;;10.65;4.10;;;;;;;;;;5019118;28;20057;-76
2023/05/27 03:29:49;;;;;;;8.85;4.53;;;;;;;;;;5036933;28;20043;-76
2023/05/27 03:32:15;;;;;;;9.90;4.50;;;;;;;;;;5036823;28;20135;-76
2023/05/27 03:34:41;;;;;;;11.65;4.80;;;;;;;;;;5052789;28;20053;-76
2023/05/27 03:37:07;;;;;;;8.88;4.65;;;;;;;;;;5056115;28;20047;-76
2023/05/27 03:39:33;;;;;;;11.32;4.82;;;;;;;;;;5055026;28;20044;-76
2023/05/27 03:42:00;;;;;;;9.07;4.00;;;;;;;;;;5056254;28;20386;-76
2023/05/27 03:44:26;;;;;;;11.23;4.93;;;;;;;;;;5056155;28;20088;-76
2023/05/27 03:46:52;;;;;;;10.02;4.43;;;;;;;;;;5056338;28;20048;-76
2023/05/27 03:49:18;;;;;;;11.32;4.45;;;;;;;;;;5036498;28;20396;-76
2023/05/27 03:51:44;;;;;;;9.18;4.47;;;;;;;;;;5055425;28;20076;-76
2023/05/27 03:54:10;;;;;;;11.23;4.70;;;;;;;;;;5071057;28;20052;-76
2023/05/27 03:56:36;;;;;;;11.63;5.20;;;;;;;;;;5056338;28;20045;-76
2023/05/27 03:59:02;;;;;;;8.85;4.35;;;;;;;;;;5056059;28;20088;-77
2023/05/27 04:01:29;;;;;;;13.82;4.78;;;;;;;;;;5036844;28;20040;-77
2023/05/27 04:03:55;;;;;;;9.40;4.60;;;;;;;;;;5035060;28;20052;-76
2023/05/27 04:06:21;;;;;;;13.07;5.50;;;;;;;;;;5055657;28;20041;-76
2023/05/27 04:08:47;;;;;;;13.45;4.97;;;;;;;;;;5055727;28;20452;-76
2023/05/27 04:11:13;;;;;;;15.30;5.10;;;;;;;;;;5055994;28;20059;-76
2023/05/27 04:13:39;;;;;;;16.05;5.15;;;;;;;;;;5055067;28;20511;-76
2023/05/27 04:16:06;;;;;;;13.82;5.53;;;;;;;;;;5055388;28;20399;-76
2023/05/27 04:18:33;;;;;;;11.55;4.85;;;;;;;;;;5040643;28;20128;-77
2023/05/27 04:20:59;;;;;;;10.93;4.55;;;;;;;;;;5035329;28;20453;-76
2023/05/27 04:23:26;;;;;;;11.25;4.35;;;;;;;;;;5049294;28;20429;-76
2023/05/27 04:25:52;;;;;;;15.25;5.53;;;;;;;;;;5055321;28;20044;-76
2023/05/27 04:28:20;;;;;;;11.93;5.60;;;;;;;;;;5055190;28;20068;-76
2023/05/27 04:30:47;;;;;;;17.85;5.70;;;;;;;;;;5019245;28;20037;-76
2023/05/27 04:33:15;;;;;;;15.30;5.30;;;;;;;;;;5036615;28;20057;-77
2023/05/27 04:35:43;;;;;;;12.27;5.25;;;;;;;;;;5055095;28;20037;-76
2023/05/27 04:38:10;;;;;;;15.57;6.05;;;;;;;;;;5017123;28;20049;-76
2023/05/27 04:40:36;;;;;;;15.13;5.40;;;;;;;;;;5036680;28;20049;-76
2023/05/27 04:43:02;;;;;;;13.15;5.22;;;;;;;;;;5020207;28;20152;-76
2023/05/27 04:45:29;;;;;;;13.63;5.65;;;;;;;;;;5036753;28;20072;-76
2023/05/27 04:47:55;;;;;;;12.35;5.57;;;;;;;;;;5063052;28;20080;-76
2023/05/27 04:50:23;;;;;;;18.73;6.65;;;;;;;;;;5054458;28;20396;-76
2023/05/27 04:52:49;;;;;;;14.98;5.32;;;;;;;;;;5037197;28;20052;-77
2023/05/27 04:55:15;;;;;;;20.23;6.88;;;;;;;;;;5052629;28;20041;-77
2023/05/27 04:57:42;;;;;;;11.55;5.18;;;;;;;;;;5036723;28;20052;-76
2023/05/27 05:02:35;;;;;;;15.90;6.18;;;;;;;;;;5033582;28;20064;-76
2023/05/27 05:05:02;;;;;;;14.88;6.00;;;;;;;;;;5036464;28;20072;-76
2023/05/27 05:07:28;;;;;;;12.82;5.90;;;;;;;;;;5054312;28;20041;-77
2023/05/27 05:09:54;;;;;;;16.73;6.40;;;;;;;;;;5019964;28;20120;-77
2023/05/27 05:12:20;;;;;;;14.10;5.70;;;;;;;;;;5000523;28;20045;-77
2023/05/27 05:14:49;;;;;;;16.20;6.18;;;;;;;;;;5034055;28;20060;-77
2023/05/27 05:17:15;;;;;;;13.00;5.72;;;;;;;;;;5033381;28;20123;-76
2023/05/27 05:19:41;;;;;;;9.60;5.32;;;;;;;;;;5034206;28;20140;-76
2023/05/27 05:22:07;;;;;;;16.60;6.13;;;;;;;;;;5046849;28;20053;-76
2023/05/27 05:24:33;;;;;;;13.95;6.05;;;;;;;;;;5052604;28;20045;-77
2023/05/27 05:26:59;;;;;;;12.48;6.15;;;;;;;;;;5036358;28;20056;-77
2023/05/27 05:29:25;;;;;;;20.77;7.47;;;;;;;;;;5049887;28;20094;-74
2023/05/27 05:31:51;;;;;;;15.30;5.65;;;;;;;;;;5034050;28;20125;-74
2023/05/27 05:34:17;;;;;;;16.08;6.93;;;;;;;;;;5022017;28;20122;-79
2023/05/27 05:36:43;;;;;;;16.83;6.03;;;;;;;;;;5042366;28;20188;-74
2023/05/27 05:39:09;;;;;;;19.55;6.22;;;;;;;;;;5017960;28;20148;-75
2023/05/27 05:41:36;;;;;;;14.52;6.22;;;;;;;;;;5052283;28;20048;-74
2023/05/27 05:44:02;;;;;;;15.10;5.50;;;;;;;;;;5052179;28;20044;-74
2023/05/27 05:46:28;;;;;;;12.25;5.70;;;;;;;;;;5035571;28;20090;-74
2023/05/27 05:48:54;;;;;;;17.58;6.20;;;;;;;;;;5013171;28;20061;-74
2023/05/27 05:51:20;;;;;;;13.43;5.57;;;;;;;;;;5046459;28;20129;-75
2023/05/27 05:53:46;;;;;;;13.07;5.05;;;;;;;;;;5053686;28;20048;-74
2023/05/27 05:56:12;;;;;;;10.85;5.22;;;;;;;;;;5019086;28;20045;-74
2023/05/27 05:58:38;;;;;;;13.85;5.25;;;;;;;;;;5032447;28;20042;-75
2023/05/27 06:01:10;;;;;;;13.07;5.60;;;;;;;;;;5018682;28;20047;-74
2023/05/27 06:03:36;;;;;;;17.25;5.03;;;;;;;;;;5033572;28;20120;-74
2023/05/27 06:06:03;;;;;;;15.23;5.63;;;;;;;;;;5022044;28;20046;-75
2023/05/27 06:08:30;;;;;;;16.95;5.15;;;;;;;;;;5018358;28;20042;-75
2023/05/27 06:10:56;;;;;;;13.48;5.25;;;;;;;;;;5037262;28;20049;-75
2023/05/27 06:13:22;;;;;;;13.45;5.93;;;;;;;;;;5052975;28;20068;-75
2023/05/27 06:15:48;;;;;;;16.42;5.68;;;;;;;;;;5056194;28;20517;-75
2023/05/27 06:18:14;;;;;;;16.75;5.85;;;;;;;;;;5074479;28;20052;-75
2023/05/27 06:20:40;;;;;;;15.05;5.63;;;;;;;;;;5055674;28;20105;-80
2023/05/27 06:23:06;;;;;;;14.93;5.70;;;;;;;;;;5028299;28;20545;-75
2023/05/27 06:25:32;;;;;;;16.52;5.43;;;;;;;;;;5035579;28;20037;-75
2023/05/27 06:27:59;;;;;;;17.20;6.72;;;;;;;;;;5023386;28;20090;-75
2023/05/27 06:30:25;;;;;;;17.40;5.13;;;;;;;;;;5044353;28;20040;-75
2023/05/27 06:32:51;;;;;;;14.73;5.85;;;;;;;;;;5035072;28;20045;-75
2023/05/27 06:35:18;;;;;;;18.52;6.28;;;;;;;;;;5023265;28;20087;-75
2023/05/27 06:37:44;;;;;;;15.18;6.03;;;;;;;;;;5014940;28;20057;-75
2023/05/27 06:40:10;;;;;;;12.57;5.00;;;;;;;;;;5014985;28;20110;-75
2023/05/27 06:42:37;;;;;;;13.68;5.90;;;;;;;;;;5015509;28;20050;-76
2023/05/27 06:45:06;;;;;;;10.88;5.22;;;;;;;;;;5015954;28;20049;-78
2023/05/27 06:47:32;;;;;;;11.98;5.90;;;;;;;;;;5037853;28;20083;-75
2023/05/27 06:49:58;;;;;;;16.30;6.47;;;;;;;;;;5044545;28;20077;-75
2023/05/27 06:52:24;;;;;;;12.05;5.22;;;;;;;;;;5026336;28;20511;-75
2023/05/27 06:54:50;;;;;;;14.93;4.95;;;;;;;;;;5035830;28;20064;-75
2023/05/27 06:57:16;;;;;;;12.52;5.50;;;;;;;;;;5041995;28;20361;-75
2023/05/27 06:59:42;;;;;;;12.85;4.80;;;;;;;;;;5055756;28;20529;-75
2023/05/27 07:02:08;;;;;;;11.77;4.85;;;;;;;;;;5056717;28;20049;-76
2023/05/27 07:04:34;;;;;;;13.25;5.25;;;;;;;;;;5038765;28;20040;-75
2023/05/27 07:07:00;;;;;;;16.08;5.95;;;;;;;;;;5042898;28;20176;-76
2023/05/27 07:09:26;;;;;;;16.80;5.43;;;;;;;;;;5018422;28;20120;-75
2023/05/27 07:11:52;;;;;;;12.75;4.97;;;;;;;;;;5015581;28;20041;-76
2023/05/27 07:14:18;;;;;;;14.05;5.20;;;;;;;;;;5047751;28;20072;-76
2023/05/27 07:16:44;;;;;;;13.38;4.95;;;;;;;;;;5036501;28;20096;-75
2023/05/27 07:19:11;;;;;;;17.13;4.90;;;;;;;;;;5036739;28;20053;-75
2023/05/27 07:21:37;;;;;;;15.32;5.20;;;;;;;;;;5040723;28;20037;-76
2023/05/27 07:24:03;;;;;;;14.38;4.90;;;;;;;;;;5037533;28;20048;-75
2023/05/27 07:26:32;;;;;;;12.90;4.20;;;;;;;;;;5036513;28;20045;-76
2023/05/27 07:28:59;;;;;;;13.25;6.15;;;;;;;;;;5042907;28;20045;-76
2023/05/27 07:31:25;;;;;;;11.10;5.30;;;;;;;;;;5056765;28;20045;-76
2023/05/27 07:33:51;;;;;;;12.80;5.35;;;;;;;;;;5032613;28;20067;-76
2023/05/27 07:36:17;;;;;;;13.48;5.38;;;;;;;;;;5048170;28;20037;-75
2023/05/27 07:38:43;;;;;;;12.90;4.38;;;;;;;;;;5061577;28;20037;-75
2023/05/27 07:41:10;;;;;;;13.32;5.05;;;;;;;;;;5055243;28;20107;-75
2023/05/27 07:43:36;;;;;;;13.85;5.28;;;;;;;;;;5047605;28;20038;-75
2023/05/27 07:46:02;;;;;;;13.27;5.28;;;;;;;;;;5035853;28;20045;-78
2023/05/27 07:48:29;;;;;;;11.75;4.82;;;;;;;;;;5035970;28;20037;-75
2023/05/27 07:50:55;;;;;;;10.98;4.63;;;;;;;;;;5035667;28;20408;-75
2023/05/27 07:53:21;;;;;;;15.77;4.93;;;;;;;;;;5035644;28;20046;-75
2023/05/27 07:55:47;;;;;;;14.57;4.82;;;;;;;;;;5035547;28;20045;-75
2023/05/27 07:58:13;;;;;;;16.90;5.28;;;;;;;;;;5044867;28;20388;-75
2023/05/27 08:00:39;;;;;;;13.80;5.43;;;;;;;;;;5037190;28;20399;-75
2023/05/27 08:03:05;;;;;;;12.05;4.75;;;;;;;;;;5023636;28;20052;-75
2023/05/27 08:05:32;;;;;;;10.82;4.72;;;;;;;;;;5050010;28;20098;-75
2023/05/27 08:07:58;;;;;;;11.05;4.63;;;;;;;;;;5034371;28;20480;-75
2023/05/27 08:10:24;;;;;;;12.82;4.47;;;;;;;;;;5035514;28;20041;-75
2023/05/27 08:12:50;;;;;;;10.48;4.75;;;;;;;;;;5018976;28;20041;-76
2023/05/27 08:15:16;;;;;;;12.98;5.22;;;;;;;;;;5039620;28;20045;-77
2023/05/27 08:17:43;;;;;;;12.45;5.28;;;;;;;;;;5055363;28;20041;-78
2023/05/27 08:20:10;;;;;;;14.95;5.10;;;;;;;;;;5029149;28;20095;-77
2023/05/27 08:22:36;;;;;;;8.25;4.63;;;;;;;;;;5045684;28;20045;-77
2023/05/27 08:25:03;;;;;;;13.27;5.72;;;;;;;;;;5035241;28;20049;-77
2023/05/27 08:27:47;;;;;;;13.55;5.22;;;;;;;;;;5036040;28;20045;-82
2023/05/27 08:30:14;;;;;;;12.55;5.68;;;;;;;;;;5040209;28;20565;-78
2023/05/27 08:32:43;;;;;;;13.57;5.32;;;;;;;;;;5056096;28;20063;-77
2023/05/27 08:35:10;;;;;;;12.30;5.30;;;;;;;;;;5036761;28;20618;-76
2023/05/27 08:37:36;;;;;;;12.85;5.78;;;;;;;;;;5040927;28;20518;-77
2023/05/27 08:40:05;;;;;;;14.23;5.20;;;;;;;;;;5053041;28;20052;-77
2023/05/27 08:42:31;;;;;;;17.00;5.63;;;;;;;;;;5055633;28;20056;-77
2023/05/27 08:44:57;;;;;;;11.45;5.10;;;;;;;;;;5053572;28;20040;-76
2023/05/27 08:47:23;;;;;;;12.75;4.80;;;;;;;;;;5035451;28;20048;-77
2023/05/27 08:49:49;;;;;;;15.73;6.15;;;;;;;;;;5053991;28;20047;-77
2023/05/27 08:52:18;;;;;;;14.15;5.70;;;;;;;;;;5054268;28;20049;-77
2023/05/27 08:54:45;;;;;;;11.82;5.55;;;;;;;;;;5054094;28;20041;-77
2023/05/27 08:57:13;;;;;;;16.42;5.38;;;;;;;;;;5054811;28;20051;-77
2023/05/27 08:59:42;;;;;;;16.10;5.60;;;;;;;;;;5049966;28;20098;-77
2023/05/27 09:02:11;;;;;;;15.10;5.60;;;;;;;;;;5053496;28;20043;-76
2023/05/27 09:04:38;;;;;;;13.95;6.22;;;;;;;;;;5050061;28;20046;-77
2023/05/27 09:07:05;;;;;;;13.32;4.90;;;;;;;;;;5014657;28;20156;-76
2023/05/27 09:09:31;;;;;;;16.15;5.90;;;;;;;;;;5034840;28;20045;-77
2023/05/27 09:12:01;;;;;;;13.10;5.20;;;;;;;;;;5038174;28;20037;-77
2023/05/27 09:14:29;;;;;;;13.85;6.22;;;;;;;;;;5050011;28;20057;-77
2023/05/27 09:16:55;;;;;;;14.93;5.38;;;;;;;;;;5053412;28;20128;-76
2023/05/27 09:19:21;;;;;;;13.82;5.57;;;;;;;;;;5054404;28;20055;-76
2023/05/27 09:21:47;;;;;;;14.00;5.65;;;;;;;;;;5053024;28;20045;-76
2023/05/27 09:24:13;;;;;;;16.33;5.85;;;;;;;;;;5034121;28;20529;-76
2023/05/27 09:26:39;;;;;;;15.60;5.93;;;;;;;;;;5035236;28;20128;-76
2023/05/27 09:29:09;;;;;;;13.95;5.50;;;;;;;;;;5035943;28;20081;-76
2023/05/27 09:31:41;;;;;;;13.65;5.68;;;;;;;;;;5037867;28;20048;-77
2023/05/27 09:34:29;;;;;;;14.23;5.85;;;;;;;;;;5037775;28;20037;-77
2023/05/27 09:36:56;;;;;;;15.25;5.78;;;;;;;;;;5016914;28;20107;-76
2023/05/27 09:39:23;;;;;;;13.93;6.00;;;;;;;;;;5030911;28;20044;-76
2023/05/27 09:41:55;;;;;;;16.08;6.35;;;;;;;;;;5054110;28;20476;-76
2023/05/27 09:44:22;;;;;;;12.38;5.65;;;;;;;;;;5019450;28;20045;-76
2023/05/27 09:46:51;;;;;;;15.52;5.68;;;;;;;;;;5055965;28;20041;-78
2023/05/27 09:49:20;;;;;;;19.77;6.40;;;;;;;;;;5039784;28;20061;-78
2023/05/27 09:51:47;;;;;;;12.50;5.50;;;;;;;;;;5017697;28;20049;-77
2023/05/27 09:54:18;;;;;;;21.83;6.45;;;;;;;;;;5036130;28;20099;-77
2023/05/27 09:56:48;;;;;;;14.52;6.05;;;;;;;;;;5034154;28;20046;-75
2023/05/27 09:59:14;;;;;;;14.35;5.97;;;;;;;;;;5042306;28;20049;-75
2023/05/27 10:01:43;;;;;;;16.00;6.03;;;;;;;;;;5052935;28;20044;-75
2023/05/27 10:04:10;;;;;;;12.98;5.50;;;;;;;;;;5041851;28;20037;-75
2023/05/27 10:06:36;;;;;;;12.63;5.63;;;;;;;;;;5053811;28;20135;-75
2023/05/27 10:09:03;;;;;;;16.77;5.90;;;;;;;;;;5053531;28;20345;-75
2023/05/27 10:11:35;;;;;;;13.82;6.47;;;;;;;;;;5034335;28;20048;-75
2023/05/27 10:14:01;;;;;;;10.55;6.07;;;;;;;;;;5033300;28;20062;-75
2023/05/27 10:16:28;;;;;;;15.52;5.72;;;;;;;;;;5034372;28;20550;-75
2023/05/27 10:18:55;;;;;;;11.43;5.32;;;;;;;;;;5051928;28;20129;-75
2023/05/27 10:21:22;;;;;;;13.45;5.90;;;;;;;;;;5053138;28;20045;-75
2023/05/27 10:23:58;;;;;;;14.57;6.32;;;;;;;;;;5039079;28;20411;-75
2023/05/27 10:26:36;;;;;;;17.35;5.97;;;;;;;;;;5046407;28;20056;-75
2023/05/27 10:29:15;;;;;;;15.57;5.60;;;;;;;;;;5051918;28;20080;-75
2023/05/27 10:31:51;;;;;;;11.38;6.07;;;;;;;;;;5041110;28;20052;-79
2023/05/27 10:34:18;;;;;;;18.88;6.05;;;;;;;;;;5033502;28;20038;-75
2023/05/27 10:36:47;;;;;;;17.50;6.05;;;;;;;;;;5049548;28;20037;-74
2023/05/27 10:39:15;;;;;;;16.35;7.68;;;;;;;;;;5052856;28;20041;-75
2023/05/27 10:41:44;;;;;;;13.75;5.85;;;;;;;;;;5035410;28;20445;-75
2023/05/27 10:44:10;;;;;;;13.68;5.60;;;;;;;;;;5032900;28;20048;-75
2023/05/27 10:46:41;;;;;;;13.80;5.68;;;;;;;;;;5053055;28;20045;-75
2023/05/27 10:49:35;;;;;;;14.63;5.72;;;;;;;;;;5037025;28;20048;-75
2023/05/27 10:52:10;;;;;;;15.38;6.47;;;;;;;;;;5049270;28;20053;-75
2023/05/27 10:54:36;;;;;;;16.75;6.50;;;;;;;;;;5052678;28;20475;-75
2023/05/27 10:57:03;;;;;;;18.88;6.93;;;;;;;;;;5052977;28;20072;-75
2023/05/27 10:59:36;;;;;;;13.65;6.25;;;;;;;;;;5052295;28;20037;-74
2023/05/27 11:02:03;;;;;;;13.35;5.97;;;;;;;;;;5051760;28;20117;-75
2023/05/27 11:04:35;;;;;;;15.38;5.78;;;;;;;;;;5037093;28;20041;-75
2023/05/27 11:07:01;;;;;;;14.48;5.70;;;;;;;;;;5034855;28;20137;-75
2023/05/27 11:09:48;;;;;;;15.68;6.25;;;;;;;;;;5047466;28;20180;-75
2023/05/27 11:12:18;;;;;;;16.85;6.18;;;;;;;;;;5029729;28;20099;-75
2023/05/27 11:14:45;;;;;;;12.63;5.05;;;;;;;;;;5048105;28;20088;-75
2023/05/27 11:17:11;;;;;;;16.17;6.03;;;;;;;;;;5022662;28;20107;-75
2023/05/27 11:19:38;;;;;;;16.52;6.55;;;;;;;;;;5045638;28;20068;-75
2023/05/27 11:22:04;;;;;;;17.27;6.07;;;;;;;;;;5052687;28;20041;-75
2023/05/27 11:24:30;;;;;;;12.95;5.97;;;;;;;;;;5052995;28;20045;-75
2023/05/27 11:26:57;;;;;;;17.27;6.03;;;;;;;;;;5018805;28;20052;-75
2023/05/27 11:29:23;;;;;;;12.95;6.20;;;;;;;;;;5052127;28;20049;-75
2023/05/27 11:31:49;;;;;;;13.82;6.32;;;;;;;;;;5051476;28;20041;-75
2023/05/27 11:34:18;;;;;;;14.43;5.85;;;;;;;;;;5052444;28;20091;-75
2023/05/27 11:36:45;;;;;;;13.45;6.22;;;;;;;;;;5051767;28;20044;-75
2023/05/27 11:39:17;;;;;;;15.15;5.97;;;;;;;;;;5050863;28;20551;-75
2023/05/27 11:41:53;;;;;;;12.98;6.15;;;;;;;;;;5056728;28;20067;-75
2023/05/27 11:44:20;;;;;;;14.90;6.05;;;;;;;;;;5038364;28;20448;-75
2023/05/27 11:46:47;;;;;;;16.05;5.85;;;;;;;;;;5053928;28;20037;-75
2023/05/27 11:49:14;;;;;;;14.48;5.80;;;;;;;;;;5055004;28;20044;-75
2023/05/27 11:51:41;;;;;;;14.13;5.55;;;;;;;;;;5038429;28;20053;-75
2023/05/27 11:54:08;;;;;;;19.58;6.45;;;;;;;;;;5056033;28;20520;-75
2023/05/27 11:56:34;;;;;;;17.55;5.80;;;;;;;;;;5056384;28;20045;-75
2023/05/27 11:59:00;;;;;;;15.45;6.78;;;;;;;;;;5033167;28;20103;-75
2023/05/27 12:01:26;;;;;;;15.20;5.57;;;;;;;;;;5042916;28;20549;-75
2023/05/27 12:03:52;;;;;;;18.42;5.82;;;;;;;;;;5033371;28;20048;-75
2023/05/27 12:06:18;;;;;;;14.32;5.85;;;;;;;;;;5040032;28;20041;-75
2023/05/27 12:08:44;;;;;;;16.08;5.80;;;;;;;;;;5035917;28;20140;-75
2023/05/27 12:11:11;;;;;;;17.40;5.75;;;;;;;;;;5023050;28;20092;-75
2023/05/27 12:13:37;;;;;;;16.83;6.40;;;;;;;;;;5019403;28;20084;-75
2023/05/27 12:16:03;;;;;;;14.13;5.40;;;;;;;;;;5054926;28;20550;-75
2023/05/27 12:18:29;;;;;;;16.60;6.03;;;;;;;;;;5049922;28;20056;-75
2023/05/27 12:20:56;;;;;;;13.57;6.00;;;;;;;;;;5035516;28;20053;-75
2023/05/27 12:23:22;;;;;;;17.70;5.95;;;;;;;;;;5021781;28;20420;-75
2023/05/27 12:25:48;;;;;;;13.77;5.30;;;;;;;;;;5028077;28;20056;-75
2023/05/27 12:28:14;;;;;;;13.70;5.72;;;;;;;;;;5031997;28;20053;-75
2023/05/27 12:30:40;;;;;;;23.42;6.80;;;;;;;;;;5026014;28;20547;-75
2023/05/27 12:33:07;;;;;;;14.18;6.10;;;;;;;;;;5055302;28;20079;-75
2023/05/27 12:35:33;;;;;;;14.38;5.53;;;;;;;;;;5037076;28;20387;-75
2023/05/27 12:38:00;;;;;;;14.52;5.22;;;;;;;;;;5044259;28;20083;-75
2023/05/27 12:40:26;;;;;;;14.13;5.13;;;;;;;;;;5054579;28;20041;-78
2023/05/27 12:42:53;;;;;;;22.10;6.45;;;;;;;;;;5037038;28;20123;-75
2023/05/27 12:45:21;;;;;;;16.58;5.63;;;;;;;;;;5053842;28;20045;-75
2023/05/27 12:47:48;;;;;;;13.38;5.22;;;;;;;;;;5054833;28;20049;-75
2023/05/27 12:50:14;;;;;;;16.70;5.75;;;;;;;;;;5054919;28;20044;-75
2023/05/27 12:52:46;;;;;;;13.88;5.30;;;;;;;;;;5054486;28;20495;-75
2023/05/27 12:55:12;;;;;;;18.00;6.05;;;;;;;;;;5020044;28;20045;-75
2023/05/27 12:57:38;;;;;;;13.75;5.20;;;;;;;;;;5038862;28;20061;-75
2023/05/27 13:00:04;;;;;;;17.60;6.65;;;;;;;;;;5049635;28;20037;-74
2023/05/27 13:02:30;;;;;;;17.42;5.47;;;;;;;;;;5054705;28;20499;-75
2023/05/27 13:04:56;;;;;;;18.00;6.18;;;;;;;;;;5054449;28;20049;-75
2023/05/27 13:07:23;;;;;;;16.52;6.15;;;;;;;;;;5054796;28;20045;-75
2023/05/27 13:09:49;;;;;;;14.35;5.53;;;;;;;;;;5022588;28;20449;-75
2023/05/27 13:12:15;;;;;;;15.85;5.18;;;;;;;;;;5024938;28;20091;-75
2023/05/27 13:14:42;;;;;;;16.60;5.95;;;;;;;;;;5016388;28;20076;-75
2023/05/27 13:17:08;;;;;;;13.60;5.70;;;;;;;;;;5035143;28;20499;-75
2023/05/27 13:19:34;;;;;;;18.40;6.03;;;;;;;;;;5033652;28;20057;-75
2023/05/27 13:22:01;;;;;;;14.07;5.40;;;;;;;;;;5017818;28;20041;-75
2023/05/27 13:24:27;;;;;;;14.52;5.40;;;;;;;;;;5030658;28;20106;-75
2023/05/27 13:26:53;;;;;;;15.20;5.10;;;;;;;;;;5049373;28;20041;-75
2023/05/27 13:29:19;;;;;;;15.48;5.40;;;;;;;;;;5034447;28;20045;-76
2023/05/27 13:31:45;;;;;;;20.00;6.47;;;;;;;;;;5016103;28;20392;-76
2023/05/27 13:34:12;;;;;;;18.48;6.45;;;;;;;;;;5050336;28;20158;-75
2023/05/27 13:36:38;;;;;;;19.00;6.60;;;;;;;;;;5053027;28;20055;-74
2023/05/27 13:39:04;;;;;;;18.58;6.20;;;;;;;;;;5053218;28;20089;-74
2023/05/27 13:41:30;;;;;;;19.15;6.18;;;;;;;;;;5054817;28;20480;-74
2023/05/27 13:43:56;;;;;;;19.48;6.63;;;;;;;;;;5037967;28;20049;-74
2023/05/27 13:46:22;;;;;;;15.85;6.18;;;;;;;;;;5032986;28;20049;-74
2023/05/27 13:48:48;;;;;;;16.08;6.50;;;;;;;;;;5034317;28;20087;-74
2023/05/27 13:51:14;;;;;;;17.38;6.68;;;;;;;;;;5041735;28;20304;-78
2023/05/27 15:10:28;;;;;;;15.73;5.50;;;;;;;;;;5091601;27;20638;-83
2023/05/27 15:12:54;;;;;;;16.77;6.10;;;;;;;;;;5070220;28;20076;-79
2023/05/27 15:15:21;;;;;;;14.20;5.50;;;;;;;;;;5069072;28;20126;-80
2023/05/27 15:17:47;;;;;;;14.10;5.30;;;;;;;;;;5069582;28;20047;-79
2023/05/27 15:20:15;;;;;;;17.52;5.80;;;;;;;;;;5071221;28;20114;-79
2023/05/27 15:22:41;;;;;;;18.75;5.68;;;;;;;;;;5072332;28;20041;-79
2023/05/27 15:25:08;;;;;;;11.52;5.40;;;;;;;;;;5076522;28;20063;-79
2023/05/27 15:27:34;;;;;;;17.08;5.70;;;;;;;;;;5091015;28;20452;-79
2023/05/27 15:30:01;;;;;;;18.75;5.65;;;;;;;;;;5089658;28;20051;-79
2023/05/27 15:32:29;;;;;;;17.40;5.70;;;;;;;;;;5055077;28;20495;-79
2023/05/27 15:34:57;;;;;;;19.05;6.40;;;;;;;;;;5071323;28;20056;-79
2023/05/27 15:37:23;;;;;;;13.05;5.35;;;;;;;;;;5069996;28;20410;-79
2023/05/27 15:39:54;;;;;;;15.77;5.38;;;;;;;;;;5070932;28;20055;-79
2023/05/27 15:42:21;;;;;;;18.65;6.25;;;;;;;;;;5071196;28;20401;-77
2023/05/27 15:44:47;;;;;;;23.55;6.80;;;;;;;;;;5068538;28;20053;-75
2023/05/27 15:47:13;;;;;;;15.73;6.20;;;;;;;;;;5061970;28;20044;-77
2023/05/27 15:49:39;;;;;;;15.50;6.20;;;;;;;;;;5048939;28;20510;-78